Time;durP1;ratioP1;P1;durP2;ratioP2;P2;SDS_P1;SDS_P2;PMS_P1;PMS_P2;Temp;Humidity;BMP_temperature;BMP_pressure;BME280_temperature;BME280_humidity;BME280_pressure;Samples;Min_cycle;Max_cycle;Signal;HPM_P1;HPM_P2
2023/08/03 00:00:37;;;;;;;49.67;46.47;;;15.90;99.90;;;;;;5031205;28;20048;-82
2023/08/03 00:03:02;;;;;;;55.30;51.83;;;16.10;99.90;;;;;;5029360;28;20037;-81
2023/08/03 00:05:28;;;;;;;54.83;50.63;;;16.00;99.90;;;;;;5029846;28;20033;-82
2023/08/03 00:07:54;;;;;;;49.28;45.63;;;16.00;99.90;;;;;;5013410;28;20041;-81
2023/08/03 00:10:21;;;;;;;39.03;35.67;;;16.00;99.90;;;;;;5029796;28;20044;-81
2023/08/03 00:12:47;;;;;;;31.85;28.92;;;15.90;99.90;;;;;;5029760;28;20037;-81
2023/08/03 00:15:14;;;;;;;34.78;32.25;;;15.90;99.90;;;;;;5029696;28;20042;-82
2023/08/03 00:17:40;;;;;;;37.20;34.47;;;15.90;99.90;;;;;;5029323;28;20127;-81
2023/08/03 00:20:07;;;;;;;31.20;28.70;;;15.90;99.90;;;;;;5029731;28;20133;-82
2023/08/03 00:22:33;;;;;;;30.50;28.08;;;15.90;99.90;;;;;;5032107;28;20045;-82
2023/08/03 00:25:00;;;;;;;31.10;28.33;;;15.90;99.90;;;;;;5034592;28;20048;-82
2023/08/03 00:27:27;;;;;;;26.27;24.45;;;15.90;99.90;;;;;;5016810;28;20042;-82
2023/08/03 00:29:53;;;;;;;30.42;27.88;;;15.90;99.90;;;;;;5034674;28;20108;-82
2023/08/03 00:32:19;;;;;;;28.00;25.48;;;15.90;99.90;;;;;;5034166;28;20117;-82
2023/08/03 00:34:44;;;;;;;37.10;34.33;;;15.90;99.90;;;;;;5034654;28;20049;-82
2023/08/03 00:37:11;;;;;;;29.95;27.70;;;15.90;99.90;;;;;;5034385;28;20041;-81
2023/08/03 00:39:37;;;;;;;34.88;32.22;;;15.90;99.90;;;;;;5033123;28;20045;-81
2023/08/03 00:42:06;;;;;;;30.50;28.15;;;15.90;99.90;;;;;;5034252;28;20037;-81
2023/08/03 00:44:32;;;;;;;33.67;31.25;;;15.90;99.90;;;;;;5016448;28;20076;-82
2023/08/03 00:46:57;;;;;;;40.65;37.92;;;15.90;99.90;;;;;;5032343;28;20065;-82
2023/08/03 00:49:28;;;;;;;31.83;28.92;;;15.90;99.90;;;;;;5034189;28;20499;-81
2023/08/03 00:51:57;;;;;;;34.35;31.92;;;15.90;99.90;;;;;;5034172;28;20558;-82
2023/08/03 00:54:23;;;;;;;23.77;21.40;;;15.90;99.90;;;;;;5032760;28;20033;-81
2023/08/03 00:56:49;;;;;;;25.45;20.38;;;16.00;99.90;;;;;;5034227;28;20084;-81
2023/08/03 00:59:15;;;;;;;25.70;23.65;;;16.00;99.90;;;;;;5032975;28;20034;-82
2023/08/03 01:01:41;;;;;;;22.25;20.52;;;16.00;99.90;;;;;;5032197;28;20048;-81
2023/08/03 01:04:07;;;;;;;23.33;21.33;;;16.00;99.90;;;;;;5032599;28;20041;-82
2023/08/03 01:06:33;;;;;;;32.00;29.45;;;16.00;99.90;;;;;;5033803;28;20510;-82
2023/08/03 01:09:00;;;;;;;26.25;24.35;;;16.00;99.90;;;;;;5032498;28;20037;-82
2023/08/03 01:11:27;;;;;;;30.23;17.02;;;16.10;99.90;;;;;;5033968;28;20084;-81
2023/08/03 01:13:54;;;;;;;28.70;26.15;;;16.00;99.90;;;;;;5032780;28;20044;-82
2023/08/03 01:16:19;;;;;;;22.55;20.33;;;16.00;99.90;;;;;;5031951;28;20037;-82
2023/08/03 01:18:45;;;;;;;20.70;18.90;;;16.00;99.90;;;;;;5032331;28;20049;-82
2023/08/03 01:21:12;;;;;;;28.65;26.52;;;16.00;99.90;;;;;;5033651;28;20064;-82
2023/08/03 01:23:38;;;;;;;26.63;24.27;;;16.00;99.90;;;;;;5033508;28;20048;-82
2023/08/03 01:26:04;;;;;;;24.65;22.67;;;16.00;99.90;;;;;;5033556;28;20041;-82
2023/08/03 01:28:29;;;;;;;29.50;27.17;;;16.00;99.90;;;;;;5033663;28;20064;-82
2023/08/03 01:30:55;;;;;;;36.10;33.53;;;16.00;99.90;;;;;;5015180;28;20068;-82
2023/08/03 01:33:21;;;;;;;24.60;21.70;;;16.00;99.90;;;;;;5031691;28;20400;-82
2023/08/03 01:35:49;;;;;;;37.92;35.53;;;16.00;99.90;;;;;;5033391;28;20037;-82
2023/08/03 01:38:15;;;;;;;35.15;31.85;;;16.00;99.90;;;;;;5031940;28;20265;-83
2023/08/03 01:40:42;;;;;;;24.00;18.15;;;16.00;99.90;;;;;;5032107;28;20073;-83
2023/08/03 01:43:08;;;;;;;25.55;16.38;;;16.00;99.90;;;;;;5033379;28;20045;-83
2023/08/03 01:45:34;;;;;;;26.67;24.77;;;16.00;99.90;;;;;;5032556;28;20041;-83
2023/08/03 01:47:59;;;;;;;15.68;14.18;;;16.00;99.90;;;;;;5031821;28;20046;-83
2023/08/03 01:50:25;;;;;;;22.98;21.10;;;16.00;99.90;;;;;;5033151;28;20041;-83
2023/08/03 01:52:51;;;;;;;28.98;26.75;;;15.90;99.90;;;;;;5031706;28;20045;-83
2023/08/03 01:55:16;;;;;;;32.25;29.30;;;15.90;99.90;;;;;;5031942;28;20045;-83
2023/08/03 01:57:42;;;;;;;25.30;23.70;;;15.90;99.90;;;;;;5031916;28;20045;-83
2023/08/03 02:00:08;;;;;;;35.53;33.13;;;15.90;99.90;;;;;;5032532;28;20045;-83
2023/08/03 02:02:33;;;;;;;43.50;40.65;;;15.90;99.90;;;;;;5031500;28;20556;-82
2023/08/03 02:04:59;;;;;;;45.08;42.28;;;15.90;99.90;;;;;;5031814;28;20443;-82
2023/08/03 02:07:43;;;;;;;37.65;35.30;;;15.90;99.90;;;;;;5031466;28;20064;-83
2023/08/03 02:10:10;;;;;;;34.78;32.65;;;16.00;99.90;;;;;;5032563;28;20480;-83
2023/08/03 02:12:36;;;;;;;47.15;44.38;;;16.00;99.90;;;;;;5031343;28;20047;-83
2023/08/03 02:15:02;;;;;;;36.60;34.30;;;16.10;99.90;;;;;;5030680;28;20120;-82
2023/08/03 02:17:28;;;;;;;48.50;45.42;;;16.00;99.90;;;;;;5015010;28;20045;-82
2023/08/03 02:19:55;;;;;;;30.02;28.05;;;16.00;99.90;;;;;;5032341;28;20055;-83
2023/08/03 02:22:20;;;;;;;23.77;22.17;;;16.00;99.90;;;;;;5032332;28;20483;-82
2023/08/03 02:24:46;;;;;;;32.92;30.55;;;16.00;99.90;;;;;;5030978;28;20048;-83
2023/08/03 02:27:11;;;;;;;24.33;22.10;;;16.00;99.90;;;;;;5031257;28;20037;-83
2023/08/03 02:29:37;;;;;;;31.60;29.25;;;16.00;99.90;;;;;;5030826;28;20037;-83
2023/08/03 02:32:03;;;;;;;38.72;35.88;;;16.00;99.90;;;;;;5014678;28;20044;-83
2023/08/03 02:34:29;;;;;;;38.95;36.50;;;16.00;99.90;;;;;;5014459;28;20041;-82
2023/08/03 02:36:54;;;;;;;32.53;30.15;;;16.10;99.90;;;;;;5032254;28;20045;-82
2023/08/03 02:39:20;;;;;;;38.28;35.97;;;16.10;99.90;;;;;;5030954;28;20029;-83
2023/08/03 02:41:45;;;;;;;31.73;29.55;;;16.10;99.90;;;;;;5032222;28;20045;-83
2023/08/03 02:44:11;;;;;;;25.13;23.00;;;16.10;99.90;;;;;;5031590;28;20044;-82
2023/08/03 02:46:37;;;;;;;24.92;22.98;;;16.10;99.90;;;;;;5030061;28;20563;-82
2023/08/03 02:49:02;;;;;;;35.65;33.08;;;16.10;99.90;;;;;;5030560;28;20459;-82
2023/08/03 02:51:28;;;;;;;37.25;34.15;;;16.10;99.90;;;;;;5032123;28;20048;-82
2023/08/03 02:53:54;;;;;;;26.88;24.90;;;16.10;99.90;;;;;;5030535;28;20046;-82
2023/08/03 02:56:19;;;;;;;42.95;40.13;;;16.10;99.90;;;;;;5030600;28;20037;-83
2023/08/03 02:58:45;;;;;;;34.08;31.42;;;16.10;99.90;;;;;;5031445;28;20060;-83
2023/08/03 03:01:11;;;;;;;25.88;24.02;;;16.10;99.90;;;;;;5030506;28;20120;-82
2023/08/03 03:03:36;;;;;;;29.52;27.58;;;16.10;99.90;;;;;;5030347;28;20459;-82
2023/08/03 03:06:02;;;;;;;52.55;49.17;;;16.10;99.90;;;;;;5031730;28;20049;-82
2023/08/03 03:08:28;;;;;;;38.35;35.75;;;16.10;99.90;;;;;;5031816;28;20069;-83
2023/08/03 03:10:53;;;;;;;20.58;19.02;;;16.10;99.90;;;;;;5030683;28;20067;-83
2023/08/03 03:13:19;;;;;;;36.63;34.40;;;16.10;99.90;;;;;;5030177;28;20044;-82
2023/08/03 03:15:44;;;;;;;33.03;30.73;;;16.10;99.90;;;;;;5030614;28;20041;-82
2023/08/03 03:18:10;;;;;;;46.47;43.47;;;16.10;99.90;;;;;;5031288;28;20050;-82
2023/08/03 03:20:36;;;;;;;17.30;15.57;;;16.10;99.90;;;;;;5030337;28;20042;-83
2023/08/03 03:23:01;;;;;;;36.38;33.90;;;16.10;99.90;;;;;;5031643;28;20180;-82
2023/08/03 03:25:27;;;;;;;50.38;47.05;;;16.00;99.90;;;;;;5030120;28;20156;-83
2023/08/03 03:27:52;;;;;;;16.95;15.60;;;16.00;99.90;;;;;;5029797;28;20037;-83
2023/08/03 03:30:18;;;;;;;57.95;54.47;;;16.00;99.90;;;;;;5030475;28;20399;-82
2023/08/03 03:32:44;;;;;;;35.47;33.08;;;16.00;99.90;;;;;;5031304;28;20494;-82
2023/08/03 03:35:10;;;;;;;15.50;14.05;;;16.00;99.90;;;;;;5030270;28;20049;-82
2023/08/03 03:37:35;;;;;;;56.65;53.38;;;16.00;99.90;;;;;;5030321;28;20076;-82
2023/08/03 03:40:01;;;;;;;20.27;18.45;;;16.00;99.90;;;;;;5030092;28;20515;-82
2023/08/03 03:42:27;;;;;;;51.65;48.38;;;16.00;99.90;;;;;;5013491;28;20488;-82
2023/08/03 03:44:52;;;;;;;20.00;18.52;;;16.00;99.90;;;;;;5031320;28;20545;-82
2023/08/03 03:47:18;;;;;;;30.98;28.70;;;16.00;99.90;;;;;;5029958;28;20081;-82
2023/08/03 03:49:43;;;;;;;45.75;42.33;;;16.00;99.90;;;;;;5029958;28;20392;-82
2023/08/03 03:52:09;;;;;;;34.67;32.33;;;16.10;99.90;;;;;;5030350;28;20399;-82
2023/08/03 03:54:35;;;;;;;35.00;32.60;;;16.10;99.90;;;;;;5013592;28;20468;-82
2023/08/03 03:57:00;;;;;;;41.47;38.75;;;16.10;99.90;;;;;;5031648;28;20047;-82
2023/08/03 03:59:26;;;;;;;36.83;34.17;;;16.10;99.90;;;;;;5035203;28;20045;-82
2023/08/03 04:01:52;;;;;;;56.95;53.10;;;16.10;99.90;;;;;;5033729;28;20048;-82
2023/08/03 04:04:18;;;;;;;38.00;35.20;;;16.10;99.90;;;;;;5033809;28;20132;-82
2023/08/03 04:06:44;;;;;;;39.30;36.05;;;16.10;99.90;;;;;;5035189;28;20046;-82
2023/08/03 04:09:09;;;;;;;49.63;46.22;;;16.10;99.90;;;;;;5035128;28;20030;-82
2023/08/03 04:11:35;;;;;;;53.95;50.22;;;16.10;99.90;;;;;;5033102;28;20120;-82
2023/08/03 04:14:01;;;;;;;27.27;25.00;;;16.10;99.90;;;;;;5033548;28;20099;-82
2023/08/03 04:16:26;;;;;;;41.00;37.88;;;16.10;99.90;;;;;;5033515;28;20052;-82
2023/08/03 04:18:52;;;;;;;41.20;37.67;;;16.10;99.90;;;;;;5033242;28;20084;-82
2023/08/03 04:21:17;;;;;;;57.72;53.47;;;16.00;99.90;;;;;;5034992;28;20120;-82
2023/08/03 04:23:43;;;;;;;36.85;33.58;;;16.00;99.90;;;;;;5034534;28;20480;-82
2023/08/03 04:26:09;;;;;;;43.00;39.90;;;16.00;99.90;;;;;;5032941;28;20038;-82
2023/08/03 04:28:34;;;;;;;45.50;42.17;;;16.00;99.90;;;;;;5034621;28;20034;-82
2023/08/03 04:31:00;;;;;;;40.97;37.78;;;16.00;99.90;;;;;;5016863;28;20663;-82
2023/08/03 04:33:26;;;;;;;61.28;56.47;;;16.00;99.90;;;;;;5033404;28;20038;-82
2023/08/03 04:35:52;;;;;;;41.00;37.22;;;16.00;99.90;;;;;;5033318;28;20499;-82
2023/08/03 04:38:17;;;;;;;48.78;44.85;;;16.00;99.90;;;;;;5034607;28;20436;-81
2023/08/03 04:40:43;;;;;;;27.58;24.65;;;16.00;99.90;;;;;;5032841;28;20041;-82
2023/08/03 04:43:08;;;;;;;39.10;35.00;;;16.00;99.90;;;;;;5034469;28;20045;-82
2023/08/03 04:45:35;;;;;;;43.97;40.03;;;16.00;99.90;;;;;;5033166;28;20050;-82
2023/08/03 04:48:00;;;;;;;35.25;31.30;;;16.10;99.90;;;;;;5033399;28;20400;-82
2023/08/03 04:50:26;;;;;;;41.70;38.00;;;16.10;99.90;;;;;;5034522;28;20112;-82
2023/08/03 04:52:52;;;;;;;31.08;28.15;;;16.20;99.90;;;;;;5032786;28;20041;-82
2023/08/03 04:55:17;;;;;;;45.70;41.63;;;16.30;99.90;;;;;;5032871;28;20037;-82
2023/08/03 04:57:43;;;;;;;31.35;28.05;;;16.30;99.90;;;;;;5032767;28;20072;-83
2023/08/03 05:00:09;;;;;;;37.65;34.28;;;16.50;99.90;;;;;;5016480;28;20037;-83
2023/08/03 05:02:35;;;;;;;34.47;26.38;;;16.40;99.90;;;;;;5032658;28;20106;-84
2023/08/03 05:05:00;;;;;;;40.90;37.30;;;16.40;99.90;;;;;;5034051;28;20034;-85
2023/08/03 05:07:27;;;;;;;42.97;38.83;;;16.30;99.90;;;;;;5033479;28;20036;-85
2023/08/03 05:09:53;;;;;;;55.95;43.28;;;16.30;99.90;;;;;;5032288;28;20049;-85
2023/08/03 05:12:19;;;;;;;33.45;30.30;;;16.30;99.90;;;;;;5032512;28;20527;-85
2023/08/03 05:14:45;;;;;;;34.20;31.17;;;16.30;99.90;;;;;;5033811;28;20038;-83
2023/08/03 05:17:10;;;;;;;36.92;33.67;;;16.30;99.90;;;;;;5033740;28;20040;-84
2023/08/03 05:19:36;;;;;;;36.63;33.45;;;16.30;99.90;;;;;;5032421;28;20049;-84
2023/08/03 05:22:01;;;;;;;47.58;43.75;;;16.30;99.90;;;;;;5033340;28;20124;-83
2023/08/03 05:24:27;;;;;;;50.53;46.63;;;16.30;99.90;;;;;;5015958;28;20037;-84
2023/08/03 05:26:53;;;;;;;19.08;17.30;;;16.30;99.90;;;;;;5033555;28;20041;-83
2023/08/03 05:29:19;;;;;;;29.48;26.65;;;16.20;99.90;;;;;;5033610;28;20396;-84
2023/08/03 05:31:50;;;;;;;33.58;30.48;;;16.30;99.90;;;;;;5033415;28;20045;-84
2023/08/03 05:34:16;;;;;;;40.03;36.28;;;16.30;99.90;;;;;;5032260;28;20052;-83
2023/08/03 05:36:41;;;;;;;34.70;31.42;;;16.30;99.90;;;;;;5033081;28;20037;-83
2023/08/03 05:39:10;;;;;;;32.55;29.15;;;16.30;99.90;;;;;;5031951;28;20053;-84
2023/08/03 05:41:36;;;;;;;32.08;28.63;;;16.30;99.90;;;;;;5031999;28;20064;-84
2023/08/03 05:44:02;;;;;;;41.90;38.47;;;16.40;99.90;;;;;;5031974;28;20049;-83
2023/08/03 05:46:32;;;;;;;38.83;35.20;;;16.30;99.90;;;;;;5033300;28;20045;-83
2023/08/03 05:48:58;;;;;;;38.85;35.50;;;16.30;99.90;;;;;;5032108;28;20038;-84
2023/08/03 05:51:25;;;;;;;32.45;29.52;;;16.30;99.90;;;;;;5015047;28;20103;-84
2023/08/03 05:53:52;;;;;;;38.90;35.70;;;16.30;99.90;;;;;;5015249;28;20480;-84
2023/08/03 05:56:23;;;;;;;30.00;27.30;;;16.30;99.90;;;;;;5032907;28;20443;-83
2023/08/03 05:58:49;;;;;;;44.28;40.30;;;16.40;99.90;;;;;;5032866;28;20037;-84
2023/08/03 06:01:19;;;;;;;32.42;29.23;;;16.40;99.90;;;;;;5031870;28;20459;-84
2023/08/03 06:03:45;;;;;;;29.23;25.10;;;16.60;99.90;;;;;;5033013;28;20045;-84
2023/08/03 06:06:15;;;;;;;32.10;28.83;;;16.70;99.90;;;;;;5032349;28;20407;-84
2023/08/03 06:08:52;;;;;;;29.65;26.27;;;16.90;99.90;;;;;;5031818;28;20037;-84
2023/08/03 06:11:20;;;;;;;31.60;28.23;;;17.10;99.90;;;;;;5032698;28;20042;-84
2023/08/03 06:13:46;;;;;;;25.63;18.25;;;17.20;99.90;;;;;;5032798;28;20053;-83
2023/08/03 06:16:16;;;;;;;26.33;20.90;;;17.20;99.90;;;;;;5031602;28;20053;-84
2023/08/03 06:18:47;;;;;;;31.73;25.20;;;17.30;99.90;;;;;;5031292;28;20058;-84
2023/08/03 06:21:14;;;;;;;37.45;33.83;;;17.30;99.90;;;;;;5031032;28;20064;-84
2023/08/03 06:23:43;;;;;;;20.45;16.33;;;17.40;99.90;;;;;;5032393;28;20511;-84
2023/08/03 06:26:11;;;;;;;19.38;17.60;;;17.60;99.90;;;;;;5032295;28;20043;-83
2023/08/03 06:28:38;;;;;;;21.23;19.10;;;17.60;99.90;;;;;;5032476;28;20044;-83
2023/08/03 06:31:14;;;;;;;25.35;22.95;;;17.60;99.90;;;;;;5032449;28;20396;-84
2023/08/03 06:33:42;;;;;;;23.15;20.95;;;17.60;99.90;;;;;;5014496;28;20048;-83
2023/08/03 06:36:10;;;;;;;26.20;23.60;;;17.80;99.90;;;;;;5030770;28;20056;-84
2023/08/03 06:38:36;;;;;;;31.58;28.75;;;17.80;99.90;;;;;;5032414;28;20045;-84
2023/08/03 06:41:02;;;;;;;30.85;28.30;;;17.80;99.90;;;;;;5031144;28;20502;-84
2023/08/03 06:43:28;;;;;;;38.10;35.55;;;17.80;99.90;;;;;;5030796;28;20072;-84
2023/08/03 06:45:54;;;;;;;39.58;36.33;;;18.00;99.90;;;;;;5032124;28;20099;-84
2023/08/03 06:48:20;;;;;;;46.05;43.10;;;18.00;99.90;;;;;;5030815;28;20041;-84
2023/08/03 06:50:45;;;;;;;50.85;47.58;;;17.80;99.90;;;;;;5031480;28;20037;-84
2023/08/03 06:53:12;;;;;;;47.88;44.53;;;17.80;99.90;;;;;;5031930;28;20079;-84
2023/08/03 06:55:38;;;;;;;57.20;52.75;;;17.80;99.90;;;;;;5032049;28;20041;-84
2023/08/03 06:58:03;;;;;;;55.05;51.35;;;18.00;99.90;;;;;;5032033;28;20084;-83
2023/08/03 07:00:29;;;;;;;57.10;53.47;;;17.90;99.90;;;;;;5030751;28;20095;-84
2023/08/03 07:02:55;;;;;;;58.13;54.47;;;18.40;99.90;;;;;;5031844;28;20400;-83
2023/08/03 07:05:21;;;;;;;51.00;47.72;;;18.60;99.90;;;;;;5029976;28;20049;-83
2023/08/03 07:07:47;;;;;;;42.15;39.33;;;18.80;99.90;;;;;;5031838;28;20034;-84
2023/08/03 07:10:13;;;;;;;51.25;46.45;;;19.10;99.90;;;;;;5030402;28;20041;-84
2023/08/03 07:12:42;;;;;;;65.13;60.15;;;19.60;99.90;;;;;;5031685;28;20049;-84
2023/08/03 07:15:08;;;;;;;31.65;29.65;;;20.40;99.90;;;;;;5031697;28;20117;-84
2023/08/03 07:17:34;;;;;;;17.08;15.85;;;21.50;99.90;;;;;;5030597;28;20488;-83
2023/08/03 07:19:59;;;;;;;35.35;33.20;;;21.90;99.90;;;;;;5030818;28;20052;-84
2023/08/03 07:22:25;;;;;;;106.30;100.55;;;22.40;99.90;;;;;;5013955;28;20518;-84
2023/08/03 07:24:51;;;;;;;118.97;112.55;;;22.10;99.90;;;;;;5031393;28;20403;-84
2023/08/03 07:27:17;;;;;;;180.77;170.75;;;21.80;99.90;;;;;;5031639;28;20118;-84
2023/08/03 07:29:43;;;;;;;289.95;273.02;;;22.10;99.90;;;;;;5031572;28;20092;-84
2023/08/03 07:32:11;;;;;;;325.40;305.95;;;21.90;99.90;;;;;;5034568;28;20037;-84
2023/08/03 07:34:36;;;;;;;343.55;323.00;;;22.20;99.90;;;;;;5037484;28;20095;-84
2023/08/03 07:37:02;;;;;;;373.55;351.35;;;22.30;99.90;;;;;;5038466;28;20038;-83
2023/08/03 07:39:28;;;;;;;402.63;377.80;;;22.10;99.90;;;;;;5038146;28;20545;-83
2023/08/03 07:41:53;;;;;;;401.63;376.55;;;21.60;99.90;;;;;;5036626;28;20057;-83
2023/08/03 07:44:19;;;;;;;383.17;358.50;;;21.20;99.90;;;;;;5036832;28;20042;-83
2023/08/03 07:46:46;;;;;;;328.52;308.55;;;21.00;99.90;;;;;;5037800;28;20120;-83
2023/08/03 07:49:11;;;;;;;279.23;263.52;;;21.30;99.90;;;;;;5037343;28;20043;-84
2023/08/03 07:51:37;;;;;;;296.90;280.00;;;21.40;99.90;;;;;;5036835;28;20120;-84
2023/08/03 07:54:03;;;;;;;283.65;267.10;;;21.00;99.90;;;;;;5037906;28;20083;-83
2023/08/03 07:56:29;;;;;;;203.15;192.25;;;20.80;99.90;;;;;;5036855;28;20038;-83
2023/08/03 07:58:55;;;;;;;344.20;322.70;;;21.30;99.90;;;;;;5036569;28;20507;-83
2023/08/03 08:01:21;;;;;;;281.20;265.00;;;21.40;99.90;;;;;;5036044;28;20488;-83
2023/08/03 08:03:47;;;;;;;234.82;220.95;;;21.70;99.90;;;;;;5036382;28;20522;-83
2023/08/03 08:06:17;;;;;;;319.67;300.75;;;21.80;99.90;;;;;;5036360;28;20488;-83
2023/08/03 08:08:44;;;;;;;292.45;276.05;;;22.50;99.90;;;;;;5037895;28;20147;-83
2023/08/03 08:11:11;;;;;;;400.48;375.92;;;22.90;99.90;;;;;;5036441;28;20044;-83
2023/08/03 08:13:37;;;;;;;446.38;418.90;;;23.20;99.90;;;;;;5036481;28;20045;-83
2023/08/03 08:16:10;;;;;;;471.30;441.38;;;23.80;99.90;;;;;;5035884;28;20534;-84
2023/08/03 08:18:36;;;;;;;495.33;463.17;;;24.20;99.90;;;;;;5036526;28;20118;-83
2023/08/03 08:21:07;;;;;;;490.00;458.13;;;23.80;99.90;;;;;;5037801;28;20045;-83
2023/08/03 08:23:33;;;;;;;487.13;456.40;;;23.00;99.90;;;;;;5037576;28;20042;-83
2023/08/03 08:26:00;;;;;;;400.23;376.15;;;23.10;99.90;;;;;;5036296;28;20184;-83
2023/08/03 08:28:26;;;;;;;479.48;449.10;;;23.80;99.90;;;;;;5036339;28;20052;-83
2023/08/03 08:30:53;;;;;;;531.22;496.52;;;24.40;99.90;;;;;;5035487;28;20136;-83
2023/08/03 08:33:20;;;;;;;594.53;554.15;;;24.90;99.90;;;;;;5036100;28;20476;-83
2023/08/03 08:35:48;;;;;;;678.60;629.85;;;25.00;99.90;;;;;;5036583;28;20454;-83
2023/08/03 08:38:14;;;;;;;696.03;646.15;;;25.00;99.90;;;;;;5036181;28;20037;-83
2023/08/03 08:40:41;;;;;;;702.50;651.28;;;24.70;99.90;;;;;;5036114;28;20124;-83
2023/08/03 08:43:08;;;;;;;676.78;628.20;;;24.80;99.90;;;;;;5034644;28;20087;-83
2023/08/03 08:45:35;;;;;;;719.90;667.70;;;25.30;99.90;;;;;;5033945;28;20042;-83
2023/08/03 08:48:01;;;;;;;770.45;712.67;;;25.00;99.90;;;;;;5034416;28;20087;-83
2023/08/03 08:50:27;;;;;;;829.45;764.80;;;24.90;99.90;;;;;;5033024;28;20067;-83
2023/08/03 08:52:53;;;;;;;868.83;793.90;;;24.50;99.90;;;;;;5034318;28;20046;-83
2023/08/03 08:55:29;;;;;;;910.08;825.25;;;24.40;99.90;;;;;;5033126;28;20088;-83
2023/08/03 08:57:56;;;;;;;1999.90;999.90;;;24.50;99.90;;;;;;5034070;28;20554;-83
2023/08/03 09:00:25;;;;;;;1993.63;999.90;;;24.40;99.90;;;;;;5015891;28;20045;-83
2023/08/03 09:02:56;;;;;;;1040.32;900.65;;;24.10;99.90;;;;;;5032991;28;20076;-83
2023/08/03 09:05:24;;;;;;;1224.35;911.13;;;23.70;99.90;;;;;;5032757;28;20084;-82
2023/08/03 09:07:59;;;;;;;1246.53;965.05;;;23.20;99.90;;;;;;5032985;28;20076;-82
2023/08/03 09:10:25;;;;;;;873.17;787.05;;;23.00;99.90;;;;;;5033765;28;20075;-83
2023/08/03 09:12:51;;;;;;;786.30;718.10;;;23.20;99.90;;;;;;5032807;28;20373;-83
2023/08/03 09:15:17;;;;;;;1166.13;959.90;;;23.20;99.90;;;;;;5032376;28;20053;-82
2023/08/03 09:17:46;;;;;;;1123.18;889.30;;;23.20;99.90;;;;;;5032173;28;20131;-82
2023/08/03 09:20:28;;;;;;;723.35;662.55;;;23.40;99.90;;;;;;5015980;28;20144;-83
2023/08/03 09:22:53;;;;;;;1505.18;999.90;;;23.50;99.90;;;;;;5032348;28;20045;-82
2023/08/03 09:25:19;;;;;;;1143.13;883.25;;;23.70;99.90;;;;;;5015679;28;20049;-83
2023/08/03 09:27:49;;;;;;;1410.38;999.90;;;23.70;99.90;;;;;;5033663;28;20403;-82
2023/08/03 09:30:15;;;;;;;1218.13;902.50;;;24.00;99.90;;;;;;5015532;28;20128;-83
2023/08/03 09:32:41;;;;;;;1868.82;999.90;;;24.20;99.90;;;;;;5033519;28;20076;-83
2023/08/03 09:35:17;;;;;;;1999.90;999.90;;;24.10;99.90;;;;;;5032181;28;20068;-82
2023/08/03 09:37:43;;;;;;;784.75;712.08;;;24.10;99.90;;;;;;5033708;28;20073;-83
2023/08/03 09:40:09;;;;;;;726.25;665.83;;;23.80;99.90;;;;;;5032334;28;20075;-82
2023/08/03 09:42:39;;;;;;;1132.32;995.97;;;23.60;99.90;;;;;;5033416;28;20042;-82
2023/08/03 09:45:07;;;;;;;1641.47;999.90;;;23.60;99.90;;;;;;5031404;28;20519;-83
2023/08/03 09:47:35;;;;;;;875.85;790.13;;;23.40;99.90;;;;;;5031856;28;20041;-83
2023/08/03 09:50:02;;;;;;;1253.47;999.20;;;23.20;99.90;;;;;;5033059;28;20506;-83
2023/08/03 09:52:30;;;;;;;686.78;630.70;;;23.00;99.90;;;;;;5031880;28;20041;-83
2023/08/03 09:55:12;;;;;;;800.20;727.72;;;22.80;99.90;;;;;;5031393;28;20595;-83
2023/08/03 09:57:47;;;;;;;980.03;876.78;;;22.70;99.90;;;;;;5014791;28;20041;-83
2023/08/03 10:00:15;;;;;;;795.67;721.75;;;22.50;99.90;;;;;;5032916;28;20400;-83
2023/08/03 10:02:57;;;;;;;771.58;706.55;;;22.40;99.90;;;;;;5032772;28;20036;-83
2023/08/03 10:05:26;;;;;;;586.07;539.97;;;22.20;99.90;;;;;;5031541;28;20599;-83
2023/08/03 10:08:10;;;;;;;493.85;458.42;;;22.10;99.90;;;;;;5032837;28;20777;-83
2023/08/03 10:10:39;;;;;;;450.25;419.13;;;22.00;99.90;;;;;;5032723;28;20045;-83
2023/08/03 10:13:05;;;;;;;441.80;411.08;;;21.90;99.90;;;;;;5032186;28;20048;-83
2023/08/03 10:15:32;;;;;;;632.28;580.97;;;22.00;99.90;;;;;;5031756;28;20081;-83
2023/08/03 10:17:59;;;;;;;374.65;349.55;;;22.20;99.90;;;;;;5031267;28;20111;-83
2023/08/03 10:20:25;;;;;;;532.28;494.35;;;22.40;99.90;;;;;;5032671;28;20077;-83
2023/08/03 10:23:08;;;;;;;443.08;412.65;;;22.60;99.90;;;;;;5031354;28;20045;-83
2023/08/03 10:25:56;;;;;;;779.90;715.03;;;23.00;99.90;;;;;;5031302;28;20052;-83
2023/08/03 10:28:24;;;;;;;1021.38;919.83;;;23.30;99.90;;;;;;5031022;28;20701;-83
2023/08/03 10:31:10;;;;;;;1027.97;925.08;;;23.50;99.90;;;;;;5031221;28;20072;-82
2023/08/03 10:33:51;;;;;;;1283.47;999.90;;;23.80;99.90;;;;;;5014512;28;20168;-83
2023/08/03 10:36:29;;;;;;;1124.53;993.75;;;24.10;99.90;;;;;;5031032;28;20060;-83
2023/08/03 10:39:04;;;;;;;973.90;877.92;;;24.20;99.90;;;;;;5032283;28;20041;-83
2023/08/03 10:41:37;;;;;;;1082.50;965.70;;;24.10;99.90;;;;;;5030396;28;20124;-83
2023/08/03 10:44:09;;;;;;;1115.60;992.72;;;24.30;99.90;;;;;;5032108;28;20048;-83
2023/08/03 10:46:42;;;;;;;1444.22;999.90;;;24.70;99.90;;;;;;5032110;28;20045;-83
2023/08/03 10:49:20;;;;;;;1535.70;999.90;;;24.80;99.90;;;;;;5032126;28;20124;-83
2023/08/03 10:52:18;;;;;;;1956.00;999.90;;;24.70;99.90;;;;;;5014684;28;20041;-83
2023/08/03 10:54:45;;;;;;;1596.03;999.90;;;24.40;99.90;;;;;;5014240;28;20041;-83
2023/08/03 10:57:12;;;;;;;1999.90;999.90;;;24.30;99.90;;;;;;5031629;28;20056;-83
2023/08/03 10:59:39;;;;;;;1628.07;999.90;;;24.40;99.90;;;;;;5031964;28;20171;-83
2023/08/03 11:02:31;;;;;;;1692.88;999.90;;;24.80;99.90;;;;;;5030568;28;20047;-83
2023/08/03 11:04:58;;;;;;;1684.53;999.90;;;25.20;99.90;;;;;;5030778;28;20077;-83
2023/08/03 11:07:56;;;;;;;1999.90;999.90;;;25.70;99.90;;;;;;5031378;28;20116;-83
2023/08/03 11:10:23;;;;;;;1999.90;999.90;;;26.00;99.90;;;;;;5008023;28;20076;-84
2023/08/03 11:12:49;;;;;;;1999.90;999.90;;;26.10;99.90;;;;;;5030326;28;20037;-83
2023/08/03 11:15:18;;;;;;;1999.90;999.90;;;26.00;99.90;;;;;;5013946;28;20038;-83
2023/08/03 11:17:48;;;;;;;1999.90;999.90;;;25.70;99.90;;;;;;5031475;28;20071;-83
2023/08/03 11:20:14;;;;;;;1999.90;999.90;;;25.20;99.90;;;;;;5030424;28;20041;-83
2023/08/03 11:22:41;;;;;;;1999.90;999.90;;;24.70;99.90;;;;;;5031708;28;20171;-83
2023/08/03 11:25:07;;;;;;;1956.97;999.90;;;24.30;99.90;;;;;;5031049;28;20033;-83
2023/08/03 11:27:33;;;;;;;1820.97;999.90;;;24.20;99.90;;;;;;5030232;28;20042;-83
2023/08/03 11:30:00;;;;;;;1851.43;999.90;;;24.40;99.90;;;;;;5013658;28;20048;-84
2023/08/03 11:32:28;;;;;;;1999.90;999.90;;;24.70;99.90;;;;;;5030164;28;20056;-83
2023/08/03 11:35:07;;;;;;;1999.90;999.90;;;24.80;99.90;;;;;;5031589;28;20045;-83
2023/08/03 11:37:35;;;;;;;1999.90;999.90;;;24.60;99.90;;;;;;5031677;28;20033;-84
2023/08/03 11:40:04;;;;;;;1956.63;999.90;;;24.30;99.90;;;;;;5029687;28;20045;-83
2023/08/03 11:42:30;;;;;;;1859.18;999.90;;;24.20;99.90;;;;;;5030099;28;20044;-83
2023/08/03 11:44:56;;;;;;;1999.90;999.90;;;24.10;99.90;;;;;;5031467;28;20042;-83
2023/08/03 11:47:22;;;;;;;1999.90;999.90;;;24.00;99.90;;;;;;5030074;28;20079;-84
2023/08/03 11:49:48;;;;;;;1803.45;999.90;;;24.10;99.90;;;;;;5031421;28;20033;-83
2023/08/03 11:52:20;;;;;;;1860.80;999.90;;;23.90;99.90;;;;;;5030095;28;20041;-84
2023/08/03 11:54:47;;;;;;;1108.00;943.58;;;23.90;99.90;;;;;;5029717;28;20143;-84
2023/08/03 11:59:58;;;;;;;1642.68;999.90;;;23.40;99.90;;;;;;5031187;28;20037;-83
2023/08/03 12:02:43;;;;;;;1796.97;999.90;;;23.40;99.90;;;;;;5029913;28;20033;-83
2023/08/03 12:05:12;;;;;;;1706.90;999.90;;;23.60;99.90;;;;;;5029756;28;20041;-83
2023/08/03 12:07:39;;;;;;;1434.45;999.90;;;23.70;99.90;;;;;;5031444;28;20391;-83
2023/08/03 12:10:11;;;;;;;1480.28;999.90;;;23.60;99.90;;;;;;5029706;28;20049;-83
2023/08/03 12:12:36;;;;;;;1706.93;999.90;;;23.70;99.90;;;;;;5029772;28;20503;-84
2023/08/03 12:15:02;;;;;;;1694.55;999.90;;;23.80;99.90;;;;;;5029783;28;20041;-83
2023/08/03 12:17:28;;;;;;;1562.28;999.90;;;23.90;99.90;;;;;;5032383;28;20045;-84
2023/08/03 12:19:53;;;;;;;1940.47;999.90;;;24.00;99.90;;;;;;5033323;28;20496;-83
2023/08/03 12:22:19;;;;;;;1999.90;999.90;;;24.00;99.90;;;;;;5035049;28;20083;-83